Time;durP1;ratioP1;P1;durP2;ratioP2;P2;SDS_P1;SDS_P2;PMS_P1;PMS_P2;Temp;Humidity;BMP_temperature;BMP_pressure;BME280_temperature;BME280_humidity;BME280_pressure;Samples;Min_cycle;Max_cycle;Signal;HPM_P1;HPM_P2
2023/09/20 00:00:46;;;;;;;4.68;2.00;;;15.10;95.80;;;;;;4952112;29;20067;-81
2023/09/20 00:03:20;;;;;;;3.38;1.65;;;15.00;96.00;;;;;;4949784;29;20035;-79
2023/09/20 00:06:02;;;;;;;4.30;1.88;;;15.00;95.80;;;;;;4952016;29;20027;-79
2023/09/20 00:08:58;;;;;;;5.43;2.17;;;15.00;96.60;;;;;;4950785;29;20380;-81
2023/09/20 00:11:27;;;;;;;7.70;3.00;;;15.00;97.00;;;;;;4917125;29;20047;-79
2023/09/20 00:14:05;;;;;;;6.65;3.35;;;14.90;97.40;;;;;;4950250;29;20027;-80
2023/09/20 00:16:30;;;;;;;7.50;2.80;;;14.90;97.60;;;;;;4951144;29;20082;-79
2023/09/20 00:18:56;;;;;;;7.47;3.38;;;14.80;97.90;;;;;;4950156;29;20031;-80
2023/09/20 00:21:34;;;;;;;7.63;3.42;;;14.80;98.40;;;;;;4933505;29;20107;-78
2023/09/20 00:24:00;;;;;;;5.25;3.38;;;14.80;98.70;;;;;;4933642;29;20034;-79
2023/09/20 00:26:26;;;;;;;8.45;3.28;;;14.70;99.00;;;;;;4950995;29;20035;-78
2023/09/20 00:29:05;;;;;;;5.30;3.00;;;14.70;99.20;;;;;;4918039;29;20030;-82
2023/09/20 05:20:39;;;;;;;6.53;2.70;;;12.80;99.90;;;;;;5964984;23;20022;31
2023/09/20 05:23:05;;;;;;;5.28;2.55;;;12.90;99.90;;;;;;4882829;29;20060;-81
2023/09/20 05:25:32;;;;;;;4.60;2.33;;;13.00;99.90;;;;;;4868481;29;20092;-79
2023/09/20 05:27:57;;;;;;;4.45;2.85;;;13.00;99.90;;;;;;4904938;29;20136;-77
2023/09/20 05:30:24;;;;;;;6.07;2.78;;;13.00;99.90;;;;;;4904171;29;20049;-76
2023/09/20 05:32:51;;;;;;;6.07;2.83;;;13.10;99.90;;;;;;4907953;29;20175;-79
2023/09/20 05:35:23;;;;;;;8.65;3.10;;;13.20;99.90;;;;;;4904226;29;20024;-78
2023/09/20 05:37:49;;;;;;;5.63;2.53;;;13.20;99.90;;;;;;4910381;29;20035;-79
2023/09/20 05:40:23;;;;;;;5.50;2.38;;;13.30;99.90;;;;;;4903916;29;20056;-79
2023/09/20 05:42:52;;;;;;;6.20;2.85;;;13.40;99.90;;;;;;4905126;29;20105;-79
2023/09/20 05:49:21;;;;;;;4.28;2.35;;;13.60;99.90;;;;;;4869602;29;20079;-77
2023/09/20 05:51:56;;;;;;;6.80;2.58;;;13.70;99.90;;;;;;4869909;29;20339;-79
2023/09/20 05:54:24;;;;;;;5.88;2.55;;;13.80;99.90;;;;;;4852969;29;20092;-78
2023/09/20 05:57:28;;;;;;;6.28;2.88;;;13.80;99.90;;;;;;4860805;29;20068;-80
2023/09/20 05:59:56;;;;;;;11.10;2.95;;;13.90;99.90;;;;;;4889135;29;20025;-78
2023/09/20 06:02:22;;;;;;;7.15;2.70;;;14.00;99.90;;;;;;4872906;29;20040;-79
2023/09/20 06:04:51;;;;;;;12.82;3.55;;;14.10;99.90;;;;;;4904006;29;20044;-79
2023/09/20 06:07:30;;;;;;;8.95;3.13;;;14.30;99.90;;;;;;4888340;29;20334;-77
2023/09/20 06:10:01;;;;;;;7.47;3.00;;;14.40;99.90;;;;;;4889574;29;20343;-78
2023/09/20 06:12:31;;;;;;;6.53;2.90;;;14.50;99.90;;;;;;4888216;29;20039;-79
2023/09/20 06:14:57;;;;;;;7.63;2.40;;;14.70;99.90;;;;;;4889957;29;20037;-79
2023/09/20 06:17:29;;;;;;;4.90;2.20;;;14.80;99.90;;;;;;4896609;29;20044;-78
2023/09/20 06:19:58;;;;;;;6.47;2.83;;;14.90;99.90;;;;;;4907454;29;20047;-78
2023/09/20 06:22:30;;;;;;;6.95;2.63;;;15.00;99.90;;;;;;4890529;29;20053;-79
2023/09/20 06:25:10;;;;;;;7.95;2.53;;;15.10;99.90;;;;;;4885666;29;20025;-78
2023/09/20 06:27:36;;;;;;;6.43;2.85;;;15.30;99.90;;;;;;4885157;29;20307;-77
2023/09/20 06:30:12;;;;;;;5.82;2.40;;;15.50;99.90;;;;;;4884273;29;20086;-78
2023/09/20 06:32:44;;;;;;;;;;;15.70;99.90;;;;;;4871208;29;20220;-76
2023/09/20 06:35:25;;;;;;;7.25;2.53;;;15.80;99.90;;;;;;4882880;29;19923;-80
2023/09/20 06:38:34;;;;;;;7.70;2.83;;;15.90;99.90;;;;;;4870056;29;20033;-80
2023/09/20 06:41:32;;;;;;;6.78;2.63;;;16.00;99.90;;;;;;4850855;29;20068;-80
2023/09/20 06:44:22;;;;;;;14.55;3.20;;;16.10;99.90;;;;;;4869390;29;20036;-79
2023/09/20 06:46:49;;;;;;;6.10;2.50;;;16.20;99.90;;;;;;4869736;29;20025;-79
2023/09/20 06:49:15;;;;;;;5.35;2.30;;;16.30;99.90;;;;;;4869974;29;20184;-80
2023/09/20 06:51:43;;;;;;;8.65;3.00;;;16.40;99.90;;;;;;4869807;29;20029;-79
2023/09/20 06:54:08;;;;;;;6.27;2.83;;;16.50;99.90;;;;;;4888386;29;20086;-79
2023/09/20 06:56:35;;;;;;;10.45;3.97;;;16.50;99.90;;;;;;4880342;29;20024;-81
2023/09/20 06:59:33;;;;;;;9.10;3.10;;;16.50;99.90;;;;;;4906834;29;20036;-78
2023/09/20 07:02:02;;;;;;;11.13;2.63;;;16.60;99.50;;;;;;4868992;29;20339;-81
2023/09/20 07:04:31;;;;;;;5.13;2.72;;;16.70;99.10;;;;;;4869901;29;20029;-81
2023/09/20 07:07:10;;;;;;;9.38;3.30;;;16.80;99.10;;;;;;4870211;29;20056;-79
2023/09/20 07:09:39;;;;;;;9.45;3.75;;;16.90;98.80;;;;;;4868200;29;20041;-77
2023/09/20 07:12:07;;;;;;;;;;;17.10;98.20;;;;;;4869804;29;20037;-78
2023/09/20 07:14:37;;;;;;;8.35;2.75;;;17.40;97.70;;;;;;4891022;29;19904;-78
2023/09/20 07:17:07;;;;;;;6.60;3.03;;;17.50;97.20;;;;;;4903710;29;20055;-78
2023/09/20 07:19:36;;;;;;;9.18;2.90;;;17.60;96.90;;;;;;4891014;29;20044;-79
2023/09/20 07:22:05;;;;;;;13.57;2.90;;;17.80;96.50;;;;;;4916700;29;20416;-78
2023/09/20 07:24:32;;;;;;;7.07;2.50;;;18.00;95.90;;;;;;4906999;29;20056;-81
2023/09/20 07:26:58;;;;;;;8.82;2.75;;;18.20;95.50;;;;;;4907341;29;20259;-79
2023/09/20 07:29:25;;;;;;;8.82;2.22;;;18.40;95.30;;;;;;4905955;29;20028;-79
2023/09/20 07:31:51;;;;;;;6.70;2.83;;;18.60;94.50;;;;;;4906373;29;20357;-78
2023/09/20 07:34:23;;;;;;;5.40;2.50;;;18.70;94.00;;;;;;4906439;29;20033;-78
2023/09/20 07:37:00;;;;;;;6.40;2.00;;;19.00;93.70;;;;;;4906663;29;20286;-77
2023/09/20 07:39:32;;;;;;;5.80;2.00;;;19.00;93.20;;;;;;4905633;29;20032;-80
2023/09/20 07:42:02;;;;;;;11.35;2.22;;;19.20;93.20;;;;;;4909557;29;20124;-80
2023/09/20 07:44:30;;;;;;;8.57;2.10;;;19.10;93.00;;;;;;4910395;29;20314;-78
2023/09/20 07:47:05;;;;;;;7.90;2.30;;;19.20;93.00;;;;;;4911073;29;20040;-78
2023/09/20 07:49:39;;;;;;;9.25;2.38;;;19.40;92.70;;;;;;4910187;29;20021;-76
2023/09/20 07:52:06;;;;;;;9.35;2.60;;;19.40;92.50;;;;;;4910631;29;20037;-78
2023/09/20 07:54:31;;;;;;;8.63;2.85;;;19.40;92.30;;;;;;4910329;29;20086;-78
2023/09/20 07:57:00;;;;;;;6.53;2.45;;;19.50;92.20;;;;;;4909725;29;20240;-77
2023/09/20 07:59:30;;;;;;;4.38;1.92;;;19.60;91.80;;;;;;4909319;29;20247;-80
2023/09/20 08:01:56;;;;;;;6.15;1.80;;;19.80;91.50;;;;;;4910831;29;20047;-78
2023/09/20 08:04:23;;;;;;;6.88;2.33;;;19.80;91.20;;;;;;4910485;29;20108;-80
2023/09/20 08:06:52;;;;;;;4.78;2.15;;;19.90;90.90;;;;;;4909471;29;20032;-79
2023/09/20 08:09:24;;;;;;;4.35;1.83;;;20.10;91.00;;;;;;4893125;29;20206;-78
2023/09/20 08:11:50;;;;;;;6.60;2.10;;;20.20;90.80;;;;;;4909931;29;20024;-77
2023/09/20 08:14:16;;;;;;;4.30;1.85;;;20.40;90.60;;;;;;4910049;29;20020;-78
2023/09/20 08:19:32;;;;;;;5.50;1.90;;;20.60;89.60;;;;;;4910166;29;20045;-78
2023/09/20 08:22:08;;;;;;;10.23;2.13;;;20.50;89.70;;;;;;4899267;29;20040;-79
2023/09/20 09:01:23;;;;;;;5.07;1.90;;;22.10;83.80;;;;;;4909132;29;20064;-78
2023/09/20 09:03:49;;;;;;;6.27;1.93;;;22.20;83.90;;;;;;4903541;29;20082;-77
2023/09/20 09:06:15;;;;;;;5.72;1.60;;;22.30;84.30;;;;;;4889587;29;20050;-75
2023/09/20 09:08:41;;;;;;;6.20;1.30;;;22.40;84.30;;;;;;4890949;29;20048;-76
2023/09/20 09:11:10;;;;;;;6.45;1.35;;;22.40;83.80;;;;;;4877384;29;20028;-76
2023/09/20 09:13:35;;;;;;;2.50;1.00;;;22.50;82.70;;;;;;4908134;29;20112;-77
2023/09/20 09:16:06;;;;;;;2.45;1.00;;;22.60;82.30;;;;;;4909502;29;20027;-76
2023/09/20 09:18:32;;;;;;;6.05;1.65;;;22.70;81.60;;;;;;4892039;29;20041;-80
2023/09/20 09:20:58;;;;;;;2.92;1.23;;;22.80;82.00;;;;;;4911006;29;20024;-79
2023/09/20 09:23:32;;;;;;;2.33;1.10;;;22.80;80.60;;;;;;4929261;29;20040;-78
2023/09/20 09:25:58;;;;;;;7.88;1.63;;;22.70;81.50;;;;;;4929467;29;20039;-76
2023/09/20 09:28:26;;;;;;;4.70;1.45;;;22.90;81.20;;;;;;4932197;29;20103;-76
2023/09/20 09:30:54;;;;;;;2.10;1.15;;;22.80;80.50;;;;;;4919024;29;20032;-77
2023/09/20 09:33:22;;;;;;;3.30;1.00;;;22.70;78.60;;;;;;4920521;29;20052;-77
2023/09/20 09:35:48;;;;;;;3.67;1.27;;;22.80;80.10;;;;;;4904802;29;20056;-77
2023/09/20 09:38:32;;;;;;;4.18;1.17;;;22.70;80.40;;;;;;4917795;29;20532;-75
2023/09/20 09:40:59;;;;;;;4.20;0.93;;;22.80;79.60;;;;;;4913365;29;20077;-79
2023/09/20 09:43:32;;;;;;;3.65;0.98;;;22.70;77.30;;;;;;4907387;29;20222;-77
2023/09/20 09:46:15;;;;;;;5.65;1.13;;;22.80;77.50;;;;;;4908798;29;20037;-77
2023/09/20 09:48:42;;;;;;;3.00;0.95;;;22.70;76.60;;;;;;4891669;29;20033;-76
2023/09/20 09:51:09;;;;;;;2.53;1.02;;;22.70;76.00;;;;;;4908172;29;20024;-78
2023/09/20 09:53:39;;;;;;;4.30;1.00;;;22.80;74.50;;;;;;4891766;29;20100;-78
2023/09/20 09:56:05;;;;;;;2.72;1.30;;;22.80;72.60;;;;;;4908488;29;20044;-78
2023/09/20 09:58:32;;;;;;;2.00;0.90;;;22.80;73.40;;;;;;4908011;29;20036;-78
2023/09/20 10:01:03;;;;;;;2.33;1.05;;;22.80;73.20;;;;;;4891994;29;20024;-78
2023/09/20 10:03:40;;;;;;;3.30;1.02;;;22.80;73.30;;;;;;4906841;29;20313;-79
2023/09/20 10:06:12;;;;;;;4.15;1.40;;;22.80;72.20;;;;;;4928751;29;20103;-75
2023/09/20 10:08:49;;;;;;;3.45;1.33;;;22.80;73.10;;;;;;4933748;29;20070;-77
2023/09/20 10:11:15;;;;;;;2.78;1.20;;;22.90;72.30;;;;;;4929860;29;20313;-78
2023/09/20 10:13:43;;;;;;;2.85;1.10;;;23.00;72.40;;;;;;4931850;29;20601;-75
2023/09/20 10:16:10;;;;;;;3.20;1.40;;;23.00;71.20;;;;;;4923660;29;20039;-80
2023/09/20 10:18:51;;;;;;;2.33;1.25;;;23.10;69.70;;;;;;4921437;29;20105;-78
2023/09/20 10:21:30;;;;;;;8.98;1.38;;;23.20;70.40;;;;;;4925855;29;20051;-81
2023/09/20 10:24:02;;;;;;;6.07;1.67;;;23.30;70.40;;;;;;4925281;29;20059;-78
2023/09/20 10:26:33;;;;;;;2.80;1.50;;;23.40;69.80;;;;;;4924697;29;20036;-75
2023/09/20 10:29:26;;;;;;;3.78;1.45;;;23.60;67.00;;;;;;4893580;29;20036;-77
2023/09/20 10:32:18;;;;;;;3.15;1.20;;;23.70;68.30;;;;;;4918111;29;20040;-78
2023/09/20 10:35:19;;;;;;;4.43;1.38;;;23.90;68.00;;;;;;4898098;29;20046;-79
2023/09/20 10:38:01;;;;;;;3.85;1.15;;;24.00;67.70;;;;;;4901238;29;20044;-77
2023/09/20 10:40:45;;;;;;;3.35;1.13;;;24.00;67.00;;;;;;4907131;29;20100;-77
2023/09/20 10:43:25;;;;;;;2.40;0.80;;;24.10;66.80;;;;;;4906530;29;20036;-77
2023/09/20 10:45:53;;;;;;;2.88;1.50;;;24.20;67.80;;;;;;4891124;29;20029;-78
2023/09/20 10:48:27;;;;;;;4.03;1.40;;;24.30;66.20;;;;;;4901166;29;20039;-76
2023/09/20 10:50:57;;;;;;;4.07;1.40;;;24.60;63.40;;;;;;4875638;29;20037;-79
2023/09/20 10:53:42;;;;;;;2.40;1.20;;;24.70;64.00;;;;;;4890528;29;20322;-78
2023/09/20 10:56:14;;;;;;;3.40;1.45;;;25.00;63.90;;;;;;4923499;29;20039;-79
2023/09/20 10:58:42;;;;;;;2.88;1.33;;;25.30;61.60;;;;;;4926598;29;20348;-78
2023/09/20 11:01:09;;;;;;;3.60;1.45;;;25.80;62.00;;;;;;4909972;29;20313;-77
2023/09/20 11:03:35;;;;;;;4.53;1.45;;;26.30;61.40;;;;;;4904640;29;20144;-79
2023/09/20 11:06:01;;;;;;;3.38;1.20;;;26.90;60.50;;;;;;4907593;29;20037;-76
2023/09/20 11:08:29;;;;;;;3.15;1.13;;;27.60;60.20;;;;;;4890170;29;20040;-78
2023/09/20 11:10:58;;;;;;;3.05;1.50;;;28.10;58.20;;;;;;4907431;29;20377;-78
2023/09/20 11:13:28;;;;;;;3.30;1.60;;;28.60;54.00;;;;;;4906785;29;20069;-78
2023/09/20 11:15:55;;;;;;;2.85;1.42;;;29.30;53.10;;;;;;4907543;29;20041;-80
2023/09/20 11:18:20;;;;;;;2.90;1.60;;;29.50;50.10;;;;;;4889987;29;20033;-77
2023/09/20 11:20:49;;;;;;;2.42;1.55;;;29.90;50.80;;;;;;4906884;29;20051;-78
2023/09/20 11:23:15;;;;;;;2.70;1.38;;;30.00;50.40;;;;;;4907372;29;20032;-77
2023/09/20 11:25:42;;;;;;;2.35;1.40;;;30.60;50.80;;;;;;4920501;29;20036;-77
2023/09/20 11:28:12;;;;;;;2.53;1.50;;;30.40;50.70;;;;;;4893337;29;20036;-78
2023/09/20 11:30:39;;;;;;;2.00;1.20;;;30.80;50.30;;;;;;4908851;29;20036;-78
2023/09/20 11:33:05;;;;;;;4.35;2.05;;;31.30;52.40;;;;;;4917483;29;20023;-79
2023/09/20 11:35:42;;;;;;;3.00;1.30;;;32.10;52.00;;;;;;4905480;29;20099;-77
2023/09/20 11:38:12;;;;;;;2.20;1.02;;;32.50;50.90;;;;;;4893223;29;20048;-78
2023/09/20 11:40:42;;;;;;;2.28;1.25;;;32.50;51.40;;;;;;4925651;29;20263;-80
2023/09/20 11:43:12;;;;;;;3.25;1.10;;;32.30;51.80;;;;;;4909406;29;20059;-79
2023/09/20 11:45:49;;;;;;;3.63;1.20;;;32.90;51.20;;;;;;4924196;29;20292;-77
2023/09/20 11:48:16;;;;;;;2.20;1.30;;;32.90;50.70;;;;;;4909126;29;20330;-79
2023/09/20 11:50:46;;;;;;;2.05;1.00;;;33.20;50.40;;;;;;4908736;29;20060;-77
2023/09/20 11:53:16;;;;;;;2.88;0.95;;;33.30;50.10;;;;;;4925767;29;20217;-77
2023/09/20 11:55:45;;;;;;;1.75;0.90;;;33.20;51.10;;;;;;4908953;29;20369;-78
2023/09/20 11:58:11;;;;;;;2.13;0.80;;;34.00;50.40;;;;;;4911899;29;20040;-77
2023/09/20 12:00:40;;;;;;;2.08;0.50;;;33.60;50.70;;;;;;4909099;29;20020;-76
2023/09/20 12:03:08;;;;;;;1.90;0.82;;;33.60;51.30;;;;;;4904969;29;20048;-77
2023/09/20 12:05:34;;;;;;;2.00;0.60;;;33.60;50.70;;;;;;4904925;29;20103;-78
2023/09/20 12:08:02;;;;;;;1.65;0.60;;;33.90;50.20;;;;;;4902918;29;20037;-76
2023/09/20 12:10:29;;;;;;;1.67;0.60;;;34.60;50.30;;;;;;4886129;29;20064;-79
2023/09/20 12:12:56;;;;;;;3.88;0.70;;;35.60;49.30;;;;;;4886454;29;20056;-77
2023/09/20 12:15:22;;;;;;;2.40;0.77;;;35.30;48.20;;;;;;4885887;29;20021;-76
2023/09/20 12:17:51;;;;;;;2.08;0.50;;;35.00;50.00;;;;;;4886768;29;20045;-77
2023/09/20 12:20:17;;;;;;;1.02;0.43;;;35.30;49.80;;;;;;4888236;29;20235;-78
2023/09/20 12:22:44;;;;;;;1.50;0.75;;;35.50;48.90;;;;;;4887978;29;20061;-78
2023/09/20 12:25:16;;;;;;;2.70;0.63;;;36.10;48.20;;;;;;4874422;29;20044;-79
2023/09/20 12:27:48;;;;;;;3.13;0.85;;;35.90;48.40;;;;;;4887577;29;20133;-77
2023/09/20 12:30:14;;;;;;;1.73;0.70;;;35.50;48.30;;;;;;4889974;29;20064;-76
2023/09/20 12:32:41;;;;;;;1.40;0.40;;;35.40;49.00;;;;;;4895941;29;20031;-77
2023/09/20 12:35:09;;;;;;;2.15;0.68;;;35.50;48.70;;;;;;4912174;29;20043;-76
2023/09/20 12:37:35;;;;;;;1.23;0.50;;;36.20;48.00;;;;;;4928551;29;20047;-77
2023/09/20 12:40:06;;;;;;;1.15;0.50;;;37.50;47.70;;;;;;4911129;29;20040;-76
2023/09/20 12:42:34;;;;;;;1.50;0.55;;;38.10;48.20;;;;;;4903093;29;20047;-77
2023/09/20 12:45:07;;;;;;;1.40;0.45;;;38.90;46.40;;;;;;4915137;29;20036;-77
2023/09/20 12:47:34;;;;;;;1.83;0.55;;;38.00;45.80;;;;;;4926222;29;20039;-76
2023/09/20 12:50:03;;;;;;;2.08;0.65;;;38.30;46.60;;;;;;4906481;29;20152;-75
2023/09/20 12:52:30;;;;;;;1.55;0.80;;;39.90;46.40;;;;;;4908734;29;20352;-77
2023/09/20 12:54:55;;;;;;;1.33;0.60;;;40.20;44.70;;;;;;4918442;29;20039;-76
2023/09/20 12:57:24;;;;;;;2.45;0.70;;;39.20;45.00;;;;;;4900798;29;20039;-77
2023/09/20 12:59:49;;;;;;;1.48;0.40;;;39.40;45.00;;;;;;4927665;29;20040;-77
2023/09/20 13:02:15;;;;;;;1.65;0.50;;;38.70;45.10;;;;;;4922747;29;20341;-77
2023/09/20 13:04:42;;;;;;;1.30;0.40;;;39.20;44.10;;;;;;4912926;29;20032;-76
2023/09/20 13:07:08;;;;;;;1.30;0.60;;;39.00;44.70;;;;;;4921013;29;20036;-75
2023/09/20 13:09:34;;;;;;;1.52;0.60;;;39.00;45.20;;;;;;4912699;29;20163;-78
2023/09/20 13:12:01;;;;;;;1.75;0.55;;;40.40;43.20;;;;;;4918131;29;20032;-77
2023/09/20 13:14:30;;;;;;;1.38;0.40;;;40.90;42.90;;;;;;4922986;29;20044;-75
2023/09/20 13:16:56;;;;;;;2.33;0.55;;;41.40;43.00;;;;;;4924210;29;20099;-76
2023/09/20 13:19:22;;;;;;;2.20;0.50;;;40.30;43.60;;;;;;4909240;29;20145;-75
2023/09/20 13:21:48;;;;;;;1.70;0.52;;;40.60;43.10;;;;;;4909204;29;20092;-77
2023/09/20 13:24:13;;;;;;;1.75;0.70;;;39.40;43.70;;;;;;4915115;29;20099;-76
2023/09/20 13:26:40;;;;;;;2.10;0.65;;;40.70;44.20;;;;;;4916297;29;20243;-76
2023/09/20 13:29:06;;;;;;;1.63;0.50;;;39.90;43.60;;;;;;4915660;29;20068;-78
2023/09/20 13:31:32;;;;;;;1.27;0.55;;;39.80;43.20;;;;;;4917556;29;20250;-77
2023/09/20 13:34:02;;;;;;;2.63;0.60;;;39.00;43.80;;;;;;4926041;29;20056;-78
2023/09/20 13:36:28;;;;;;;0.93;0.38;;;38.80;44.00;;;;;;4922161;29;20040;-77
2023/09/20 13:38:53;;;;;;;2.50;0.80;;;38.90;44.10;;;;;;4922035;29;20106;-77
2023/09/20 13:41:21;;;;;;;1.30;0.60;;;39.50;43.80;;;;;;4917594;29;20036;-77
2023/09/20 13:43:47;;;;;;;0.98;0.45;;;39.80;43.50;;;;;;4920011;29;20108;-77
2023/09/20 13:46:14;;;;;;;2.20;0.60;;;41.00;42.80;;;;;;4916250;29;20306;-77
2023/09/20 13:48:40;;;;;;;1.08;0.40;;;40.80;42.30;;;;;;4918185;29;20032;-76
2023/09/20 13:51:13;;;;;;;2.10;0.53;;;41.50;42.50;;;;;;4926674;29;20050;-75
2023/09/20 13:53:40;;;;;;;1.60;0.57;;;42.20;42.10;;;;;;4909025;29;20043;-77
2023/09/20 13:56:05;;;;;;;1.23;0.50;;;42.10;41.20;;;;;;4913881;29;20043;-76
2023/09/20 13:58:33;;;;;;;2.17;0.60;;;41.20;41.80;;;;;;4902499;29;20087;-76
2023/09/20 14:01:05;;;;;;;2.28;0.40;;;40.90;41.70;;;;;;4909584;29;20020;-75
2023/09/20 14:03:34;;;;;;;1.05;0.43;;;41.50;41.70;;;;;;4930224;29;20028;-75
2023/09/20 14:06:05;;;;;;;2.50;0.40;;;41.30;41.20;;;;;;4920836;29;20048;-75
2023/09/20 14:08:32;;;;;;;1.75;0.57;;;42.20;41.30;;;;;;4912266;29;20055;-76
2023/09/20 14:11:00;;;;;;;;;;;41.50;40.60;;;;;;4913491;29;20044;-75
2023/09/20 14:13:29;;;;;;;1.85;0.50;;;41.80;41.20;;;;;;4919932;29;19903;-76
2023/09/20 14:15:58;;;;;;;1.00;0.40;;;41.90;40.60;;;;;;4911712;29;20024;-76
2023/09/20 14:18:24;;;;;;;1.63;0.43;;;42.50;40.70;;;;;;4915226;29;20379;-76
2023/09/20 14:20:51;;;;;;;1.90;0.50;;;41.80;40.00;;;;;;4917462;29;20020;-76
2023/09/20 14:23:17;;;;;;;;;;;40.20;41.00;;;;;;4922247;29;20063;-76
2023/09/20 14:25:43;;;;;;;;;;;40.90;41.10;;;;;;4907176;29;19954;-76
2023/09/20 14:28:08;;;;;;;;;;;42.40;40.40;;;;;;4908104;29;19903;-75
2023/09/20 14:30:36;;;;;;;;;;;43.20;40.70;;;;;;4920632;29;19914;-76
2023/09/20 14:33:01;;;;;;;;;;;43.50;40.10;;;;;;4923215;29;19907;-76
2023/09/20 14:35:27;;;;;;;;;;;44.00;40.90;;;;;;4906192;29;19937;-75
2023/09/20 14:37:53;;;;;;;;;;;43.50;40.60;;;;;;4910751;29;19915;-77
2023/09/20 14:40:23;;;;;;;;;;;43.20;40.20;;;;;;4907186;29;19914;-75
2023/09/20 14:42:49;;;;;;;;;;;43.00;41.10;;;;;;4916234;29;19922;-77
2023/09/20 14:45:22;;;;;;;;;;;44.00;40.10;;;;;;4919445;29;19949;-76
2023/09/20 14:47:49;;;;;;;;;;;43.10;40.20;;;;;;4917894;29;20096;-76
2023/09/20 14:50:15;;;;;;;;;;;43.30;40.50;;;;;;4912371;29;20153;-76
2023/09/20 14:52:42;;;;;;;;;;;43.80;39.90;;;;;;4918067;29;19930;-76
2023/09/20 14:55:09;;;;;;;;;;;43.30;40.00;;;;;;4921927;29;19903;-76
2023/09/20 14:57:35;;;;;;;;;;;43.40;40.60;;;;;;4917133;29;19911;-75
2023/09/20 15:00:03;;;;;;;;;;;43.40;40.60;;;;;;4920792;29;19979;-75
2023/09/20 15:02:33;;;;;;;;;;;43.60;40.40;;;;;;4918082;29;19979;-76
2023/09/20 15:05:00;;;;;;;;;;;44.70;39.80;;;;;;4916076;29;19959;-76
2023/09/20 15:07:29;;;;;;;;;;;44.50;41.00;;;;;;4919709;29;19998;-76
2023/09/20 15:10:00;;;;;;;;;;;44.90;40.40;;;;;;4915603;29;19947;-76
2023/09/20 15:12:29;;;;;;;;;;;45.80;39.40;;;;;;4914239;29;19915;-75
2023/09/20 15:14:58;;;;;;;;;;;45.20;39.10;;;;;;4908028;29;19915;-75
2023/09/20 15:17:25;;;;;;;;;;;44.90;39.40;;;;;;4913892;29;19903;-76
2023/09/20 15:19:52;;;;;;;;;;;43.50;39.40;;;;;;4924534;29;19974;-76
2023/09/20 15:22:19;;;;;;;;;;;42.70;40.10;;;;;;4907739;29;20238;-77
2023/09/20 15:24:45;;;;;;;;;;;43.00;41.00;;;;;;4923755;29;19911;-76
2023/09/20 15:27:12;;;;;;;;;;;44.00;40.20;;;;;;4918989;29;19931;-76
2023/09/20 15:29:37;;;;;;;;;;;45.00;38.90;;;;;;4906720;29;19907;-76
2023/09/20 15:32:03;;;;;;;;;;;43.60;39.50;;;;;;4912390;29;19950;-77
2023/09/20 15:34:29;;;;;;;;;;;44.50;39.10;;;;;;4919153;29;19915;-76
2023/09/20 15:36:54;;;;;;;;;;;43.50;39.60;;;;;;4910919;29;19915;-76
2023/09/20 15:39:20;;;;;;;;;;;44.20;39.90;;;;;;4906036;29;20059;-77
2023/09/20 15:41:48;;;;;;;;;;;43.60;39.40;;;;;;4911144;29;19907;-75
2023/09/20 15:44:14;;;;;;;;;;;43.40;40.80;;;;;;4924662;29;20018;-77
2023/09/20 15:46:42;;;;;;;;;;;43.50;39.60;;;;;;4912831;29;19918;-76
2023/09/20 15:49:07;;;;;;;;;;;42.20;40.30;;;;;;4915832;29;19907;-77
2023/09/20 15:51:33;;;;;;;;;;;41.30;41.30;;;;;;4920844;29;19950;-76
2023/09/20 15:53:58;;;;;;;;;;;41.40;41.20;;;;;;4908484;29;20173;-76
2023/09/20 15:56:25;;;;;;;;;;;40.70;41.00;;;;;;4913722;29;19939;-75
2023/09/20 15:58:51;;;;;;;;;;;40.30;41.60;;;;;;4915257;29;20076;-75
2023/09/20 16:01:18;;;;;;;;;;;41.30;42.10;;;;;;4923447;29;19974;-77
2023/09/20 16:03:44;;;;;;;;;;;41.10;42.30;;;;;;4910093;29;19914;-76
2023/09/20 16:06:10;;;;;;;;;;;42.10;41.70;;;;;;4911887;29;19907;-75
2023/09/20 16:08:36;;;;;;;;;;;42.90;40.20;;;;;;4921104;29;20208;-76
2023/09/20 16:11:02;;;;;;;;;;;43.00;39.80;;;;;;4920302;29;19907;-76
2023/09/20 16:13:28;;;;;;;;;;;42.80;42.00;;;;;;4927975;29;20138;-76
2023/09/20 16:15:53;;;;;;;;;;;43.30;40.00;;;;;;4924583;29;19945;-76
2023/09/20 16:18:19;;;;;;;;;;;42.30;40.50;;;;;;4914033;29;19915;-76
2023/09/20 16:20:45;;;;;;;;;;;42.60;40.80;;;;;;4914986;29;20307;-77
2023/09/20 16:23:11;;;;;;;;;;;42.20;41.10;;;;;;4924980;29;20117;-77
2023/09/20 16:25:38;;;;;;;;;;;42.50;41.80;;;;;;4928600;29;19915;-75
2023/09/20 16:28:04;;;;;;;;;;;41.50;41.70;;;;;;4916763;29;19911;-77
2023/09/20 16:30:33;;;;;;;;;;;40.80;42.00;;;;;;4910691;29;20196;-77
2023/09/20 16:33:01;;;;;;;;;;;39.70;43.10;;;;;;4918755;29;19946;-77
2023/09/20 16:35:33;;;;;;;;;;;38.50;44.80;;;;;;4909569;29;19919;-76
2023/09/20 16:37:59;;;;;;;;;;;37.00;45.40;;;;;;4922706;29;19911;-76
2023/09/20 16:40:26;;;;;;;;;;;35.80;46.20;;;;;;4913564;29;19922;-77
2023/09/20 16:42:52;;;;;;;;;;;34.70;47.60;;;;;;4913476;29;20236;-77
2023/09/20 16:45:21;;;;;;;;;;;33.60;48.60;;;;;;4916641;29;20193;-77
2023/09/20 16:47:48;;;;;;;;;;;32.70;49.40;;;;;;4918619;29;19907;-76
2023/09/20 16:50:13;;;;;;;;;;;32.00;50.80;;;;;;4918116;29;19903;-76
2023/09/20 16:52:39;;;;;;;;;;;31.40;51.30;;;;;;4926065;29;19973;-78
2023/09/20 16:55:12;;;;;;;;;;;31.10;52.20;;;;;;4922357;29;19946;-77
2023/09/20 16:57:38;;;;;;;;;;;30.80;52.80;;;;;;4915322;29;20123;-77
2023/09/20 17:00:04;;;;;;;;;;;30.40;53.10;;;;;;4928272;29;19914;-77
2023/09/20 17:02:30;;;;;;;;;;;30.10;54.00;;;;;;4922578;29;19979;-76
2023/09/20 17:04:55;;;;;;;;;;;29.80;54.10;;;;;;4919402;29;19903;-75
2023/09/20 17:07:21;;;;;;;;;;;29.60;55.10;;;;;;4917789;29;19907;-75
2023/09/20 17:09:48;;;;;;;;;;;29.50;55.80;;;;;;4920328;29;19907;-75
2023/09/20 17:12:16;;;;;;;;;;;29.20;55.70;;;;;;4908968;29;19903;-77
2023/09/20 17:14:42;;;;;;;;;;;29.00;57.40;;;;;;4916904;29;20189;-76
2023/09/20 17:17:08;;;;;;;;;;;28.80;57.40;;;;;;4909664;29;19914;-75
2023/09/20 17:19:34;;;;;;;;;;;28.60;58.40;;;;;;4910127;29;20219;-78
2023/09/20 17:22:08;;;;;;;;;;;28.30;59.10;;;;;;4916994;29;19914;-76
2023/09/20 17:24:37;;;;;;;;;;;28.40;59.40;;;;;;4925790;29;19907;-76
2023/09/20 17:27:04;;;;;;;;;;;28.30;59.60;;;;;;4915176;29;19938;-76
2023/09/20 17:29:33;;;;;;;;;;;28.10;59.70;;;;;;4909734;29;20239;-76
2023/09/20 17:31:58;;;;;;;;;;;27.90;60.30;;;;;;4918785;29;19910;-78
2023/09/20 17:34:27;;;;;;;;;;;27.70;60.70;;;;;;4918726;29;19915;-76
2023/09/20 17:36:53;;;;;;;;;;;27.60;60.90;;;;;;4903935;29;19970;-76
2023/09/20 17:39:20;;;;;;;;;;;27.30;61.10;;;;;;4917628;29;20093;-77
2023/09/20 17:41:52;;;;;;;;;;;27.10;61.30;;;;;;4921748;29;19907;-76
2023/09/20 17:44:18;;;;;;;;;;;26.80;62.10;;;;;;4911159;29;19922;-77
2023/09/20 17:46:44;;;;;;;;;;;26.60;62.10;;;;;;4912184;29;19979;-77
2023/09/20 17:49:12;;;;;;;;;;;26.50;62.50;;;;;;4921289;29;19907;-77
2023/09/20 17:51:44;;;;;;;;;;;26.30;62.90;;;;;;4916436;29;19914;-75
2023/09/20 17:54:12;;;;;;;;;;;26.00;63.60;;;;;;4918746;29;19990;-78
2023/09/20 17:56:41;;;;;;;;;;;25.80;64.00;;;;;;4913624;29;19907;-76
2023/09/20 17:59:07;;;;;;;;;;;25.70;64.90;;;;;;4920982;29;19982;-76
2023/09/20 18:01:33;;;;;;;;;;;25.70;64.40;;;;;;4911485;29;20082;-76
2023/09/20 18:03:59;;;;;;;;;;;25.50;64.40;;;;;;4925585;29;19907;-76
2023/09/20 18:06:31;;;;;;;;;;;25.20;64.90;;;;;;4922569;29;19907;-77
2023/09/20 18:09:08;;;;;;;;;;;25.10;64.90;;;;;;4915374;29;20198;-76
2023/09/20 18:11:58;;;;;;;;;;;24.90;65.50;;;;;;4916937;29;19914;-78
2023/09/20 18:14:25;;;;;;;;;;;24.90;66.80;;;;;;4913068;29;19927;-78
2023/09/20 18:16:51;;;;;;;;;;;24.90;66.90;;;;;;4918242;29;19933;-77
2023/09/20 18:19:17;;;;;;;;;;;24.70;67.00;;;;;;4914450;29;20138;-76
2023/09/20 18:21:43;;;;;;;;;;;24.60;67.30;;;;;;4916074;29;19912;-77
2023/09/20 18:24:09;;;;;;;;;;;24.60;67.90;;;;;;4905672;29;19907;-77
2023/09/20 18:26:35;;;;;;;;;;;24.50;68.40;;;;;;4905344;29;20141;-78
2023/09/20 18:29:02;;;;;;;;;;;24.40;68.80;;;;;;4909290;29;19959;-75
2023/09/20 18:31:32;;;;;;;;;;;24.10;69.40;;;;;;4906960;29;20196;-77
2023/09/20 18:34:00;;;;;;;;;;;24.00;70.10;;;;;;4916857;29;19907;-77
2023/09/20 18:36:28;;;;;;;;;;;23.70;70.00;;;;;;4936622;29;19921;-77
2023/09/20 18:38:59;;;;;;;;;;;23.70;70.70;;;;;;4917460;29;19979;-77
2023/09/20 18:41:25;;;;;;;;;;;23.70;70.90;;;;;;4917385;29;19912;-78
2023/09/20 18:43:50;;;;;;;;;;;23.70;71.50;;;;;;4905918;29;20289;-77
2023/09/20 18:46:16;;;;;;;;;;;23.50;71.80;;;;;;4905870;29;19911;-77
2023/09/20 18:48:42;;;;;;;;;;;23.40;72.50;;;;;;4905123;29;20113;-77
2023/09/20 18:51:08;;;;;;;;;;;23.30;72.80;;;;;;4905682;29;19966;-76
2023/09/20 18:53:34;;;;;;;;;;;23.20;72.80;;;;;;4907102;29;19943;-76
2023/09/20 18:56:02;;;;;;;;;;;23.10;72.90;;;;;;4917646;29;19915;-77
2023/09/20 18:58:30;;;;;;;;;;;23.10;73.10;;;;;;4919006;29;19904;-76
2023/09/20 19:00:55;;;;;;;;;;;23.00;74.10;;;;;;4912094;29;19916;-76